Time;durP1;ratioP1;P1;durP2;ratioP2;P2;SDS_P1;SDS_P2;PMS_P1;PMS_P2;Temp;Humidity;BMP_temperature;BMP_pressure;BME280_temperature;BME280_humidity;BME280_pressure;Samples;Min_cycle;Max_cycle;Signal;HPM_P1;HPM_P2
2022/01/25 00:08:25;;;;;;;49.63;29.48;;;;;;;;;;5133634;27;20055;-62
2022/01/25 00:15:06;;;;;;;44.45;28.42;;;;;;;;;;5148603;27;20054;-64
2022/01/25 00:25:11;;;;;;;47.67;29.35;;;;;;;;;;5149634;27;20055;-62
2022/01/25 00:28:18;;;;;;;48.92;31.35;;;;;;;;;;5151287;27;20150;-62
2022/01/25 00:32:50;;;;;;;44.35;28.40;;;;;;;;;;5138881;27;20047;-62
2022/01/25 00:35:16;;;;;;;44.05;28.90;;;;;;;;;;5142093;27;20483;-62
2022/01/25 00:37:42;;;;;;;47.88;29.83;;;;;;;;;;5144836;27;20057;-62
2022/01/25 00:40:09;;;;;;;44.90;28.58;;;;;;;;;;5155176;27;20051;-62
2022/01/25 00:42:35;;;;;;;48.42;30.40;;;;;;;;;;5145792;27;20075;-62
2022/01/25 00:45:02;;;;;;;47.30;30.70;;;;;;;;;;5133467;27;20051;-62
2022/01/25 00:47:28;;;;;;;45.40;29.15;;;;;;;;;;5136778;27;20411;-64
2022/01/25 00:49:55;;;;;;;49.83;31.83;;;;;;;;;;5136489;27;20057;-62
2022/01/25 00:55:03;;;;;;;45.38;29.38;;;;;;;;;;5144528;27;20055;-61
2022/01/25 00:57:30;;;;;;;48.95;29.00;;;;;;;;;;5135769;27;20043;-62
2022/01/25 00:59:56;;;;;;;46.50;30.20;;;;;;;;;;5142582;27;20147;-62
2022/01/25 01:02:22;;;;;;;48.05;30.15;;;;;;;;;;5139797;27;20059;-63
2022/01/25 01:04:49;;;;;;;49.38;30.00;;;;;;;;;;5135524;27;20200;-63
2022/01/25 01:07:16;;;;;;;45.67;29.45;;;;;;;;;;5142176;27;20061;-63
2022/01/25 01:09:46;;;;;;;47.38;31.15;;;;;;;;;;5137741;27;20058;-62
2022/01/25 01:12:19;;;;;;;43.50;28.55;;;;;;;;;;5143118;27;20549;-62
2022/01/25 01:31:04;;;;;;;48.42;29.75;;;;;;;;;;5154474;27;20055;-61
2022/01/25 01:43:54;;;;;;;44.87;29.43;;;;;;;;;;5135577;27;20055;-62
2022/01/25 01:48:53;;;;;;;46.95;29.70;;;;;;;;;;5138493;27;20071;-62
2022/01/25 01:51:36;;;;;;;45.40;29.42;;;;;;;;;;5148055;27;20510;-64
2022/01/25 01:54:10;;;;;;;46.63;29.42;;;;;;;;;;5135357;27;20048;-63
2022/01/25 01:56:36;;;;;;;49.08;30.45;;;;;;;;;;5135293;27;20482;-62
2022/01/25 01:59:05;;;;;;;45.40;28.38;;;;;;;;;;5137987;27;20055;-62
2022/01/25 02:01:32;;;;;;;46.13;29.70;;;;;;;;;;5147614;27;20051;-61
2022/01/25 02:04:00;;;;;;;47.75;30.17;;;;;;;;;;5137402;27;20067;-62
2022/01/25 02:06:26;;;;;;;47.47;29.98;;;;;;;;;;5155620;27;20051;-62
2022/01/25 02:08:53;;;;;;;48.45;30.52;;;;;;;;;;5135073;27;20048;-62
2022/01/25 02:11:19;;;;;;;47.03;30.08;;;;;;;;;;5135229;27;20051;-63
2022/01/25 02:13:46;;;;;;;48.70;29.52;;;;;;;;;;5134870;27;20047;-62
2022/01/25 02:16:36;;;;;;;51.55;32.28;;;;;;;;;;5134651;27;20058;-62
2022/01/25 02:24:35;;;;;;;46.78;29.38;;;;;;;;;;5138476;27;20134;-62
2022/01/25 02:27:01;;;;;;;47.67;29.27;;;;;;;;;;5133937;27;20621;-62
2022/01/25 02:29:28;;;;;;;49.55;30.45;;;;;;;;;;5140607;27;20512;-63
2022/01/25 02:31:55;;;;;;;50.38;31.13;;;;;;;;;;5144189;27;20057;-63
2022/01/25 02:34:21;;;;;;;51.83;31.13;;;;;;;;;;5134747;27;20056;-62
2022/01/25 02:36:55;;;;;;;47.33;29.15;;;;;;;;;;5134415;27;20059;-62
2022/01/25 02:39:21;;;;;;;48.83;29.00;;;;;;;;;;5136580;27;20058;-63
2022/01/25 02:41:47;;;;;;;50.50;31.52;;;;;;;;;;5134201;27;20043;-62
2022/01/25 02:44:23;;;;;;;50.63;30.27;;;;;;;;;;5134619;27;20495;-61
2022/01/25 02:49:17;;;;;;;51.03;31.08;;;;;;;;;;5134351;27;20442;-63
2022/01/25 02:51:44;;;;;;;51.75;31.63;;;;;;;;;;5134084;27;20052;-61
2022/01/25 02:54:12;;;;;;;49.70;30.85;;;;;;;;;;5143856;27;20047;-63
2022/01/25 02:56:40;;;;;;;49.72;30.38;;;;;;;;;;5135113;27;20048;-64
2022/01/25 02:59:06;;;;;;;49.65;30.70;;;;;;;;;;5167364;22;20047;-58
2022/01/25 03:01:33;;;;;;;49.65;31.50;;;;;;;;;;5064111;28;20049;-58
2022/01/25 03:04:00;;;;;;;51.10;31.23;;;;;;;;;;5061808;28;20575;-56
2022/01/25 03:06:26;;;;;;;56.30;31.63;;;;;;;;;;5073071;28;20059;-58
2022/01/25 03:08:53;;;;;;;55.17;30.73;;;;;;;;;;5076603;28;20055;-58
2022/01/25 03:11:21;;;;;;;51.65;31.80;;;;;;;;;;5073417;28;20056;-59
2022/01/25 03:13:55;;;;;;;50.55;31.20;;;;;;;;;;5068534;28;20491;-56
2022/01/25 03:16:37;;;;;;;52.13;31.48;;;;;;;;;;5078907;28;20045;-57
2022/01/25 03:19:28;;;;;;;50.15;30.50;;;;;;;;;;5053444;28;20064;-55
2022/01/25 03:21:53;;;;;;;56.33;31.55;;;;;;;;;;5059813;28;20444;-57
2022/01/25 03:24:19;;;;;;;49.88;30.50;;;;;;;;;;5056842;28;20141;-54
2022/01/25 03:26:45;;;;;;;51.55;31.00;;;;;;;;;;5052949;28;20516;-57
2022/01/25 03:29:12;;;;;;;51.88;31.13;;;;;;;;;;5052929;28;20050;-58
2022/01/25 03:31:38;;;;;;;54.55;31.83;;;;;;;;;;5056980;28;20512;-58
2022/01/25 03:34:04;;;;;;;51.03;30.23;;;;;;;;;;5068989;28;20155;-57
2022/01/25 03:36:31;;;;;;;50.25;31.35;;;;;;;;;;5072795;28;20511;-56
2022/01/25 03:38:57;;;;;;;54.60;33.25;;;;;;;;;;5059520;28;20096;-55
2022/01/25 03:41:24;;;;;;;54.17;30.90;;;;;;;;;;5053744;28;20046;-57
2022/01/25 03:43:56;;;;;;;55.85;32.83;;;;;;;;;;5063816;28;20064;-59
2022/01/25 03:46:37;;;;;;;53.53;32.03;;;;;;;;;;5052576;28;20144;-60
2022/01/25 03:51:49;;;;;;;56.25;32.33;;;;;;;;;;5073034;28;20061;-58
2022/01/25 03:54:15;;;;;;;53.70;31.90;;;;;;;;;;5070943;28;20053;-56
2022/01/25 03:56:42;;;;;;;55.08;32.10;;;;;;;;;;5074462;28;20055;-59
2022/01/25 03:59:08;;;;;;;52.55;31.00;;;;;;;;;;5059636;28;20063;-58
2022/01/25 04:01:35;;;;;;;60.30;33.08;;;;;;;;;;5075939;28;20045;-56
2022/01/25 04:04:09;;;;;;;56.17;32.22;;;;;;;;;;5063574;28;20054;-58
2022/01/25 04:06:36;;;;;;;61.10;34.85;;;;;;;;;;5055663;28;20412;-52
2022/01/25 04:09:06;;;;;;;58.63;34.13;;;;;;;;;;5061296;28;20056;-57
2022/01/25 04:11:33;;;;;;;56.53;32.10;;;;;;;;;;5056048;28;20111;-58
2022/01/25 04:14:00;;;;;;;57.80;33.40;;;;;;;;;;5055973;28;20145;-56
2022/01/25 04:16:34;;;;;;;59.33;34.30;;;;;;;;;;5069344;28;20053;-57
2022/01/25 04:19:12;;;;;;;58.03;33.27;;;;;;;;;;5060647;28;20049;-57
2022/01/25 04:26:52;;;;;;;58.13;32.10;;;;;;;;;;5074130;28;20483;-55
2022/01/25 04:29:20;;;;;;;60.63;33.88;;;;;;;;;;5072325;28;20045;-56
2022/01/25 04:31:47;;;;;;;58.55;34.53;;;;;;;;;;5056882;28;20058;-56
2022/01/25 04:37:05;;;;;;;59.92;34.30;;;;;;;;;;5055584;28;20122;-57
2022/01/25 04:53:34;;;;;;;63.22;33.83;;;;;;;;;;5063646;28;20060;-58
2022/01/25 04:56:19;;;;;;;57.95;32.72;;;;;;;;;;5075448;28;20509;-56
2022/01/25 04:59:00;;;;;;;60.92;34.03;;;;;;;;;;5072601;28;20548;-57
2022/01/25 05:01:27;;;;;;;63.15;34.10;;;;;;;;;;5066560;28;20394;-59
2022/01/25 05:04:01;;;;;;;58.80;33.55;;;;;;;;;;5053857;28;20113;-58
2022/01/25 05:06:29;;;;;;;59.38;34.15;;;;;;;;;;5054569;28;20051;-59
2022/01/25 05:09:04;;;;;;;60.92;34.50;;;;;;;;;;5055053;28;20060;-58
2022/01/25 05:11:34;;;;;;;59.22;32.88;;;;;;;;;;5054591;28;20064;-59
2022/01/25 05:16:46;;;;;;;60.67;33.42;;;;;;;;;;5053555;28;20050;-58
2022/01/25 05:24:30;;;;;;;67.78;35.55;;;;;;;;;;5054047;28;20059;-56
2022/01/25 05:26:56;;;;;;;63.78;35.95;;;;;;;;;;5058010;28;20056;-56
2022/01/25 05:29:22;;;;;;;65.95;35.92;;;;;;;;;;5054423;28;20555;-56
2022/01/25 05:31:49;;;;;;;64.38;36.20;;;;;;;;;;5054904;28;20058;-56
2022/01/25 05:34:15;;;;;;;62.58;35.97;;;;;;;;;;5054523;28;20064;-57
2022/01/25 05:36:43;;;;;;;64.20;36.08;;;;;;;;;;5054346;28;20060;-58
2022/01/25 05:39:17;;;;;;;61.85;33.55;;;;;;;;;;5054591;28;20149;-58
2022/01/25 05:41:45;;;;;;;69.18;35.90;;;;;;;;;;5061881;28;20554;-56
2022/01/25 05:44:22;;;;;;;69.65;36.33;;;;;;;;;;5041747;28;20061;-58
2022/01/25 05:47:04;;;;;;;63.30;34.80;;;;;;;;;;5038213;28;20060;-58
2022/01/25 05:49:32;;;;;;;67.03;36.00;;;;;;;;;;5062660;28;20058;-56
2022/01/25 05:52:05;;;;;;;61.92;34.90;;;;;;;;;;5038121;28;20460;-57
2022/01/25 05:54:32;;;;;;;65.40;36.03;;;;;;;;;;5052530;28;20132;-58
2022/01/25 05:57:01;;;;;;;67.30;35.67;;;;;;;;;;5051768;28;20077;-58
2022/01/25 05:59:32;;;;;;;63.95;35.47;;;;;;;;;;5053460;28;20097;-60
2022/01/25 06:01:58;;;;;;;68.18;35.85;;;;;;;;;;5046555;28;20054;-59
2022/01/25 06:04:25;;;;;;;64.63;35.50;;;;;;;;;;5053539;28;20057;-58
2022/01/25 06:06:51;;;;;;;63.53;34.47;;;;;;;;;;5051712;28;20559;-57
2022/01/25 06:09:17;;;;;;;62.47;33.45;;;;;;;;;;5052902;28;20515;-57
2022/01/25 06:11:44;;;;;;;58.63;32.88;;;;;;;;;;5052355;28;20061;-55
2022/01/25 06:14:10;;;;;;;62.22;34.05;;;;;;;;;;5039562;28;20590;-59
2022/01/25 06:16:36;;;;;;;66.55;36.13;;;;;;;;;;5034310;28;20056;-58
2022/01/25 06:19:02;;;;;;;69.30;36.30;;;;;;;;;;5044256;28;20071;-58
2022/01/25 06:21:34;;;;;;;64.90;34.58;;;;;;;;;;5043216;28;20464;-55
2022/01/25 06:24:01;;;;;;;64.70;35.00;;;;;;;;;;5046749;28;20060;-56
2022/01/25 06:26:27;;;;;;;70.50;36.38;;;;;;;;;;5050218;28;20540;-57
2022/01/25 06:28:53;;;;;;;63.60;35.10;;;;;;;;;;5054980;28;20057;-58
2022/01/25 06:31:20;;;;;;;64.25;35.33;;;;;;;;;;5048151;28;20071;-58
2022/01/25 06:33:46;;;;;;;65.25;34.15;;;;;;;;;;5073343;28;20085;-58
2022/01/25 06:36:13;;;;;;;65.60;35.50;;;;;;;;;;5063063;28;20049;-57
2022/01/25 06:38:40;;;;;;;72.43;36.95;;;;;;;;;;5067862;28;20057;-57
2022/01/25 06:41:09;;;;;;;61.42;35.47;;;;;;;;;;5058774;28;20057;-58
2022/01/25 06:43:35;;;;;;;64.55;35.00;;;;;;;;;;5055652;28;20053;-53
2022/01/25 06:46:03;;;;;;;71.57;37.58;;;;;;;;;;5049990;28;20046;-59
2022/01/25 06:48:31;;;;;;;71.10;36.10;;;;;;;;;;5057663;28;20085;-57
2022/01/25 06:50:58;;;;;;;69.30;36.20;;;;;;;;;;5064559;28;20518;-57
2022/01/25 06:53:24;;;;;;;61.35;34.90;;;;;;;;;;5054447;28;20061;-57
2022/01/25 06:55:50;;;;;;;64.40;35.15;;;;;;;;;;5052890;28;20056;-58
2022/01/25 06:58:17;;;;;;;64.88;35.03;;;;;;;;;;5052742;28;20060;-54
2022/01/25 07:00:43;;;;;;;63.55;35.03;;;;;;;;;;5052641;28;20067;-59
2022/01/25 07:03:10;;;;;;;66.80;36.70;;;;;;;;;;5054022;28;20057;-59
2022/01/25 07:05:36;;;;;;;66.90;36.15;;;;;;;;;;5056398;28;20099;-59
2022/01/25 07:08:03;;;;;;;66.22;35.83;;;;;;;;;;5056658;28;20058;-59
2022/01/25 07:10:29;;;;;;;74.63;34.22;;;;;;;;;;5052137;28;20140;-59
2022/01/25 07:12:56;;;;;;;68.80;35.53;;;;;;;;;;5059765;28;20049;-59
2022/01/25 07:15:22;;;;;;;68.68;37.65;;;;;;;;;;5067010;28;20068;-59
2022/01/25 07:17:48;;;;;;;70.78;36.55;;;;;;;;;;5056519;28;20050;-58
2022/01/25 07:20:15;;;;;;;68.70;35.78;;;;;;;;;;5065997;28;20053;-57
2022/01/25 07:22:41;;;;;;;68.40;35.35;;;;;;;;;;5059303;28;20500;-56
2022/01/25 07:25:09;;;;;;;63.75;35.38;;;;;;;;;;5056240;28;20103;-59
2022/01/25 07:27:36;;;;;;;66.68;35.83;;;;;;;;;;5054538;28;20060;-58
2022/01/25 07:30:03;;;;;;;70.13;36.58;;;;;;;;;;5052373;28;20145;-57
2022/01/25 07:32:29;;;;;;;64.80;34.28;;;;;;;;;;5052688;28;20398;-58
2022/01/25 07:35:02;;;;;;;68.93;35.33;;;;;;;;;;5053404;28;20057;-59
2022/01/25 07:37:28;;;;;;;66.57;35.78;;;;;;;;;;5062496;28;20088;-57
2022/01/25 07:39:56;;;;;;;70.57;38.55;;;;;;;;;;5051738;28;20074;-57
2022/01/25 07:42:23;;;;;;;70.00;37.58;;;;;;;;;;5052928;28;20053;-58
2022/01/25 07:44:56;;;;;;;71.93;36.60;;;;;;;;;;5050289;28;20057;-58
2022/01/25 07:47:31;;;;;;;71.30;37.85;;;;;;;;;;5052480;28;20136;-58
2022/01/25 07:50:05;;;;;;;66.90;35.45;;;;;;;;;;5052154;28;20496;-56
2022/01/25 07:52:31;;;;;;;71.93;36.45;;;;;;;;;;5063559;28;20107;-58
2022/01/25 07:54:58;;;;;;;67.88;35.45;;;;;;;;;;5049749;28;20489;-57
2022/01/25 07:57:25;;;;;;;70.85;36.65;;;;;;;;;;5049942;28;20059;-59
2022/01/25 07:59:51;;;;;;;66.68;35.25;;;;;;;;;;5051508;28;20067;-58
2022/01/25 08:02:19;;;;;;;71.88;35.47;;;;;;;;;;5051472;28;20084;-58
2022/01/25 08:05:02;;;;;;;69.80;36.25;;;;;;;;;;4994153;28;20511;-58
2022/01/25 08:07:37;;;;;;;73.47;37.00;;;;;;;;;;4998189;28;20491;-58
2022/01/25 08:10:18;;;;;;;70.85;37.30;;;;;;;;;;4995362;28;20058;-58
2022/01/25 08:12:47;;;;;;;71.70;37.50;;;;;;;;;;4989610;28;20050;-59
2022/01/25 08:15:29;;;;;;;69.80;36.72;;;;;;;;;;4989321;28;20536;-56
2022/01/25 08:18:08;;;;;;;77.30;37.47;;;;;;;;;;4998586;28;20055;-57
2022/01/25 08:20:44;;;;;;;74.07;35.90;;;;;;;;;;4996421;28;20573;-57
2022/01/25 08:23:36;;;;;;;72.50;35.53;;;;;;;;;;4931826;28;20177;-58
2022/01/25 08:26:12;;;;;;;69.22;37.40;;;;;;;;;;4942623;28;20108;-57
2022/01/25 08:29:05;;;;;;;68.80;36.05;;;;;;;;;;4961092;28;20050;-60
2022/01/25 08:31:43;;;;;;;70.75;36.30;;;;;;;;;;4989807;28;20059;-58
2022/01/25 08:34:25;;;;;;;68.97;34.67;;;;;;;;;;4923909;29;20060;-59
2022/01/25 08:36:55;;;;;;;77.35;37.38;;;;;;;;;;4983388;28;20054;-58
2022/01/25 08:39:32;;;;;;;70.40;36.97;;;;;;;;;;4992722;28;20518;-58
2022/01/25 08:42:03;;;;;;;67.30;34.25;;;;;;;;;;5019731;28;20057;-57
2022/01/25 08:44:30;;;;;;;74.55;36.28;;;;;;;;;;5054395;28;20053;-58
2022/01/25 08:46:57;;;;;;;71.05;36.35;;;;;;;;;;5052717;28;20152;-59
2022/01/25 08:50:00;;;;;;;76.65;36.95;;;;;;;;;;5060541;28;20144;-61
2022/01/25 08:52:44;;;;;;;71.22;35.60;;;;;;;;;;5049980;28;20061;-59
2022/01/25 08:55:28;;;;;;;68.43;34.55;;;;;;;;;;5054938;28;20499;-58
2022/01/25 08:58:02;;;;;;;70.35;35.33;;;;;;;;;;5054614;28;20054;-59
2022/01/25 09:00:31;;;;;;;69.25;35.13;;;;;;;;;;5051882;28;20096;-59
2022/01/25 09:03:00;;;;;;;72.47;36.33;;;;;;;;;;5053793;28;20509;-58
2022/01/25 09:05:26;;;;;;;68.15;35.47;;;;;;;;;;5055767;28;20063;-59
2022/01/25 09:07:53;;;;;;;69.63;35.67;;;;;;;;;;5054253;28;20053;-60
2022/01/25 09:10:19;;;;;;;73.75;36.63;;;;;;;;;;5055826;28;20571;-57
2022/01/25 09:12:46;;;;;;;69.03;34.35;;;;;;;;;;5057790;28;20060;-59
2022/01/25 09:15:12;;;;;;;66.75;34.95;;;;;;;;;;5054908;28;20064;-56
2022/01/25 09:17:38;;;;;;;69.97;35.67;;;;;;;;;;5054408;28;20053;-59
2022/01/25 09:20:05;;;;;;;68.40;34.38;;;;;;;;;;5057627;28;20110;-59
2022/01/25 09:22:31;;;;;;;67.10;34.08;;;;;;;;;;5054341;28;20056;-59
2022/01/25 09:25:18;;;;;;;70.45;35.38;;;;;;;;;;5054465;28;20053;-59
2022/01/25 09:27:46;;;;;;;67.60;33.88;;;;;;;;;;5053918;28;20054;-59
2022/01/25 09:30:13;;;;;;;72.68;35.78;;;;;;;;;;5059155;28;20049;-58
2022/01/25 09:32:39;;;;;;;73.90;37.13;;;;;;;;;;5074667;28;20140;-59
2022/01/25 09:35:06;;;;;;;74.95;37.03;;;;;;;;;;5055188;28;20136;-58
2022/01/25 09:37:32;;;;;;;71.93;35.70;;;;;;;;;;5054324;28;20061;-59
2022/01/25 09:40:00;;;;;;;71.57;36.40;;;;;;;;;;5053601;28;20057;-59
2022/01/25 09:42:29;;;;;;;68.10;33.97;;;;;;;;;;5053669;28;20053;-58
2022/01/25 09:44:55;;;;;;;66.18;34.65;;;;;;;;;;5054072;28;20144;-59
2022/01/25 09:47:21;;;;;;;73.13;35.95;;;;;;;;;;5053759;28;20449;-59
2022/01/25 09:49:48;;;;;;;70.38;34.58;;;;;;;;;;5053767;28;20050;-59
2022/01/25 09:52:14;;;;;;;73.72;35.63;;;;;;;;;;5054242;28;20472;-56
2022/01/25 09:54:41;;;;;;;69.22;34.83;;;;;;;;;;5053847;28;20064;-58
2022/01/25 09:57:08;;;;;;;69.55;35.67;;;;;;;;;;5053893;28;20056;-58
2022/01/25 09:59:35;;;;;;;71.32;35.53;;;;;;;;;;5053075;28;20057;-58
2022/01/25 10:02:01;;;;;;;73.72;36.53;;;;;;;;;;5057526;28;20134;-56
2022/01/25 10:04:37;;;;;;;72.95;36.78;;;;;;;;;;5072112;28;20049;-58
2022/01/25 10:07:04;;;;;;;69.32;34.60;;;;;;;;;;5053092;28;20053;-58
2022/01/25 10:09:32;;;;;;;69.10;34.25;;;;;;;;;;5053780;28;20107;-60
2022/01/25 10:12:15;;;;;;;70.95;35.67;;;;;;;;;;5053216;28;20132;-58
2022/01/25 10:15:00;;;;;;;68.75;34.97;;;;;;;;;;5055368;28;20053;-58
2022/01/25 10:17:33;;;;;;;67.95;35.85;;;;;;;;;;5053431;28;20045;-59
2022/01/25 10:20:00;;;;;;;68.53;35.55;;;;;;;;;;5053614;28;20141;-59
2022/01/25 10:22:26;;;;;;;71.10;35.78;;;;;;;;;;5071942;28;20053;-57
2022/01/25 10:24:53;;;;;;;70.25;36.33;;;;;;;;;;5073323;28;20052;-57
2022/01/25 10:30:07;;;;;;;66.75;33.25;;;;;;;;;;5033225;28;20540;-60
2022/01/25 10:32:38;;;;;;;68.18;34.85;;;;;;;;;;5033557;28;20615;-59
2022/01/25 10:35:14;;;;;;;71.35;35.80;;;;;;;;;;5047971;28;20057;-58
2022/01/25 10:37:41;;;;;;;67.95;33.05;;;;;;;;;;5053447;28;20141;-59
2022/01/25 10:40:08;;;;;;;77.75;37.05;;;;;;;;;;5053234;28;20057;-58
2022/01/25 10:42:37;;;;;;;69.82;35.00;;;;;;;;;;5053539;28;20061;-57
2022/01/25 10:45:05;;;;;;;75.70;39.03;;;;;;;;;;5052960;28;20081;-57
2022/01/25 10:47:45;;;;;;;67.88;34.13;;;;;;;;;;5053072;28;20140;-61
2022/01/25 10:50:16;;;;;;;67.72;34.25;;;;;;;;;;5032994;28;20050;-58
2022/01/25 10:52:44;;;;;;;64.85;31.95;;;;;;;;;;5050865;28;20115;-58
2022/01/25 10:55:11;;;;;;;68.57;34.35;;;;;;;;;;5056662;28;20164;-59
2022/01/25 10:57:37;;;;;;;66.50;32.53;;;;;;;;;;5054207;28;20463;-59
2022/01/25 11:00:29;;;;;;;65.78;32.38;;;;;;;;;;5061079;28;20060;-57
2022/01/25 11:02:56;;;;;;;64.20;32.33;;;;;;;;;;5053245;28;20053;-58
2022/01/25 11:05:23;;;;;;;64.43;31.88;;;;;;;;;;5053613;28;20386;-57
2022/01/25 11:07:49;;;;;;;67.80;34.22;;;;;;;;;;5052930;28;20057;-55
2022/01/25 11:10:18;;;;;;;64.70;31.70;;;;;;;;;;5053041;28;20137;-56
2022/01/25 11:13:00;;;;;;;67.05;34.08;;;;;;;;;;5069328;28;20139;-56
2022/01/25 11:15:33;;;;;;;70.93;34.90;;;;;;;;;;5053325;28;20084;-52
2022/01/25 11:17:59;;;;;;;66.38;32.83;;;;;;;;;;5073205;28;20049;-58
2022/01/25 11:20:26;;;;;;;63.13;30.38;;;;;;;;;;5059037;28;20049;-56
2022/01/25 11:22:53;;;;;;;64.80;32.42;;;;;;;;;;5053653;28;20145;-58
2022/01/25 11:25:21;;;;;;;70.85;34.88;;;;;;;;;;5052565;28;20137;-57
2022/01/25 11:27:48;;;;;;;67.82;33.88;;;;;;;;;;5054003;28;20056;-58
2022/01/25 11:30:17;;;;;;;70.60;34.15;;;;;;;;;;5052180;28;20046;-59
2022/01/25 11:32:45;;;;;;;71.00;32.38;;;;;;;;;;5052611;28;20060;-56
2022/01/25 11:35:13;;;;;;;68.85;34.55;;;;;;;;;;5055888;28;20108;-58
2022/01/25 11:37:42;;;;;;;69.80;34.78;;;;;;;;;;5052402;28;20054;-57
2022/01/25 11:40:24;;;;;;;76.72;34.53;;;;;;;;;;5051836;28;20057;-58
2022/01/25 11:42:51;;;;;;;64.75;31.83;;;;;;;;;;5055840;28;20174;-58
2022/01/25 11:45:21;;;;;;;67.65;33.53;;;;;;;;;;5055821;28;20052;-59
2022/01/25 11:47:49;;;;;;;62.00;33.28;;;;;;;;;;5050152;28;20129;-58
2022/01/25 11:50:16;;;;;;;69.65;32.63;;;;;;;;;;5062000;28;20053;-57
2022/01/25 11:52:46;;;;;;;70.97;36.50;;;;;;;;;;5068117;28;20096;-58
2022/01/25 11:55:16;;;;;;;69.40;34.70;;;;;;;;;;5050521;28;20050;-59
2022/01/25 11:58:03;;;;;;;66.78;34.38;;;;;;;;;;5062614;28;20063;-59
2022/01/25 12:00:42;;;;;;;70.20;33.35;;;;;;;;;;5061650;28;20061;-57
2022/01/25 12:03:27;;;;;;;74.63;34.17;;;;;;;;;;5057547;28;20471;-58
2022/01/25 12:06:11;;;;;;;67.38;32.95;;;;;;;;;;5043164;28;20062;-59
2022/01/25 12:08:48;;;;;;;67.22;35.30;;;;;;;;;;5044900;28;20049;-59
2022/01/25 12:11:29;;;;;;;70.35;34.75;;;;;;;;;;5049796;28;20068;-59
2022/01/25 12:14:11;;;;;;;65.32;34.47;;;;;;;;;;5053283;28;20053;-57
2022/01/25 12:16:37;;;;;;;68.07;33.85;;;;;;;;;;5053992;28;20511;-58
2022/01/25 12:19:10;;;;;;;67.60;34.22;;;;;;;;;;5053380;28;20507;-60
2022/01/25 12:21:45;;;;;;;70.70;34.88;;;;;;;;;;5052728;28;20557;-60
2022/01/25 12:24:19;;;;;;;70.85;33.63;;;;;;;;;;5055196;28;20058;-59
2022/01/25 12:26:55;;;;;;;64.88;32.10;;;;;;;;;;5061103;28;20050;-56
2022/01/25 12:29:38;;;;;;;66.38;33.75;;;;;;;;;;5062675;28;20054;-60
2022/01/25 12:32:40;;;;;;;65.07;33.75;;;;;;;;;;5052262;28;20084;-58
2022/01/25 12:35:11;;;;;;;65.22;31.88;;;;;;;;;;5050330;28;20153;-57
2022/01/25 12:37:43;;;;;;;66.28;34.75;;;;;;;;;;5053922;28;20051;-58
2022/01/25 12:40:24;;;;;;;69.82;33.65;;;;;;;;;;5053626;28;20128;-56
2022/01/25 12:42:51;;;;;;;71.30;34.65;;;;;;;;;;5066331;28;20119;-59
2022/01/25 12:45:18;;;;;;;72.22;34.67;;;;;;;;;;5054028;28;20531;-60
2022/01/25 12:48:02;;;;;;;72.15;34.92;;;;;;;;;;5052981;28;20060;-55
2022/01/25 12:50:29;;;;;;;67.70;33.10;;;;;;;;;;5054548;28;20049;-58
2022/01/25 12:52:58;;;;;;;68.13;34.90;;;;;;;;;;5054115;28;20060;-58
2022/01/25 12:55:25;;;;;;;69.32;32.63;;;;;;;;;;5054842;28;20529;-59
2022/01/25 12:57:52;;;;;;;68.20;33.28;;;;;;;;;;5054126;28;20057;-58
2022/01/25 13:00:19;;;;;;;66.75;34.67;;;;;;;;;;5045474;28;20068;-58
2022/01/25 13:02:46;;;;;;;82.50;35.53;;;;;;;;;;5051763;28;20049;-57
2022/01/25 13:05:20;;;;;;;66.05;32.67;;;;;;;;;;5054030;28;20057;-59
2022/01/25 13:07:47;;;;;;;69.07;32.78;;;;;;;;;;5047849;28;20061;-59
2022/01/25 13:10:24;;;;;;;64.85;32.90;;;;;;;;;;5044180;28;20054;-58
2022/01/25 13:12:58;;;;;;;70.07;34.25;;;;;;;;;;5040876;28;20054;-57
2022/01/25 13:15:50;;;;;;;65.68;32.53;;;;;;;;;;5036360;28;20057;-57
2022/01/25 13:18:17;;;;;;;68.63;31.95;;;;;;;;;;5053230;28;20049;-57
2022/01/25 13:20:46;;;;;;;65.85;31.92;;;;;;;;;;5048814;28;20057;-58
2022/01/25 13:23:13;;;;;;;67.50;32.13;;;;;;;;;;5044140;28;20064;-59
2022/01/25 13:26:09;;;;;;;67.95;32.15;;;;;;;;;;5040463;28;20064;-59
2022/01/25 13:28:50;;;;;;;70.78;33.03;;;;;;;;;;5041065;28;20115;-59
2022/01/25 13:31:20;;;;;;;68.43;33.28;;;;;;;;;;5040128;28;20053;-57
2022/01/25 13:33:47;;;;;;;64.97;31.98;;;;;;;;;;5049087;28;20076;-57
2022/01/25 13:36:19;;;;;;;64.28;30.20;;;;;;;;;;5050820;28;20540;-58
2022/01/25 13:38:48;;;;;;;68.55;34.17;;;;;;;;;;5050166;28;20429;-57
2022/01/25 13:41:27;;;;;;;66.53;32.00;;;;;;;;;;5036282;28;20054;-57
2022/01/25 13:46:54;;;;;;;65.65;32.28;;;;;;;;;;5053320;28;20077;-57
2022/01/25 13:49:21;;;;;;;67.30;32.25;;;;;;;;;;5048929;28;20124;-58
2022/01/25 13:51:54;;;;;;;70.32;33.70;;;;;;;;;;5049435;28;20076;-56
2022/01/25 13:54:22;;;;;;;64.55;31.77;;;;;;;;;;5056826;28;20523;-57
2022/01/25 13:56:49;;;;;;;65.38;31.10;;;;;;;;;;5040238;28;20050;-60
2022/01/25 13:59:15;;;;;;;58.10;29.20;;;;;;;;;;5033803;28;20144;-58
2022/01/25 14:01:42;;;;;;;59.97;28.77;;;;;;;;;;5033382;28;20060;-57
2022/01/25 14:04:14;;;;;;;67.25;31.42;;;;;;;;;;5043692;28;20582;-55
2022/01/25 14:06:42;;;;;;;68.78;32.40;;;;;;;;;;5053593;28;20077;-57
2022/01/25 14:09:14;;;;;;;64.63;32.55;;;;;;;;;;5053320;28;20056;-58
2022/01/25 14:22:48;;;;;;;65.53;32.70;;;;;;;;;;5049856;28;20092;-55
2022/01/25 14:25:26;;;;;;;66.78;31.50;;;;;;;;;;5068876;28;20083;-58
2022/01/25 14:27:55;;;;;;;63.60;30.48;;;;;;;;;;5053984;28;20058;-57
2022/01/25 14:30:21;;;;;;;68.30;31.90;;;;;;;;;;5052957;28;20053;-57
2022/01/25 14:33:00;;;;;;;62.08;29.45;;;;;;;;;;5052607;28;20057;-57
2022/01/25 14:35:28;;;;;;;68.10;32.60;;;;;;;;;;5052509;28;20076;-57
2022/01/25 14:38:02;;;;;;;67.00;33.40;;;;;;;;;;5052182;28;20081;-58
2022/01/25 14:40:29;;;;;;;63.28;30.27;;;;;;;;;;5055420;28;20059;-56
2022/01/25 14:42:55;;;;;;;65.05;31.27;;;;;;;;;;5050923;28;20089;-58
2022/01/25 14:45:23;;;;;;;67.28;32.53;;;;;;;;;;5055424;28;20051;-55
2022/01/25 14:47:51;;;;;;;67.40;31.67;;;;;;;;;;5053522;28;20469;-58
2022/01/25 14:50:20;;;;;;;66.45;32.55;;;;;;;;;;5058064;28;20804;-58
2022/01/25 14:53:01;;;;;;;67.75;30.77;;;;;;;;;;5050021;28;20440;-55
2022/01/25 14:55:28;;;;;;;63.50;32.10;;;;;;;;;;5061504;28;20092;-58
2022/01/25 14:58:21;;;;;;;66.80;31.35;;;;;;;;;;5048743;28;20050;-57
2022/01/25 15:00:51;;;;;;;66.68;32.35;;;;;;;;;;5061821;28;20144;-56
2022/01/25 15:03:18;;;;;;;66.95;31.30;;;;;;;;;;5050494;28;20050;-58
2022/01/25 15:05:46;;;;;;;68.40;31.88;;;;;;;;;;5047923;28;20531;-58
2022/01/25 15:08:13;;;;;;;68.68;33.05;;;;;;;;;;5052129;28;20487;-58
2022/01/25 15:10:44;;;;;;;67.65;32.03;;;;;;;;;;5052251;28;20057;-58
2022/01/25 15:13:11;;;;;;;64.25;32.30;;;;;;;;;;5054048;28;20049;-58
2022/01/25 15:15:46;;;;;;;69.47;31.60;;;;;;;;;;5054162;28;20064;-54
2022/01/25 15:18:12;;;;;;;65.13;30.65;;;;;;;;;;5052208;28;20052;-59
2022/01/25 15:20:39;;;;;;;70.28;30.30;;;;;;;;;;5054960;28;20049;-56
2022/01/25 15:23:05;;;;;;;65.28;29.95;;;;;;;;;;5051498;28;20686;-57
2022/01/25 15:25:31;;;;;;;62.15;30.35;;;;;;;;;;5052695;28;20057;-57
2022/01/25 15:27:59;;;;;;;63.40;29.67;;;;;;;;;;5050032;28;20060;-56
2022/01/25 15:30:26;;;;;;;66.28;30.38;;;;;;;;;;5052038;28;20493;-59
2022/01/25 15:32:52;;;;;;;63.55;31.70;;;;;;;;;;5051913;28;20060;-57
2022/01/25 15:35:21;;;;;;;67.97;31.52;;;;;;;;;;5055009;28;20084;-59
2022/01/25 15:37:59;;;;;;;63.83;31.23;;;;;;;;;;5056887;28;20050;-58
2022/01/25 15:40:26;;;;;;;68.25;31.42;;;;;;;;;;5058510;28;20060;-55
2022/01/25 15:42:52;;;;;;;65.43;31.25;;;;;;;;;;5055310;28;20064;-54
2022/01/25 15:45:31;;;;;;;62.50;30.77;;;;;;;;;;5062577;28;20056;-56
2022/01/25 15:47:58;;;;;;;63.53;30.48;;;;;;;;;;5075545;28;20060;-54
2022/01/25 15:50:26;;;;;;;67.38;31.52;;;;;;;;;;5053442;28;20180;-57
2022/01/25 15:52:53;;;;;;;64.68;31.77;;;;;;;;;;5066689;28;20053;-57
2022/01/25 15:55:19;;;;;;;66.65;32.45;;;;;;;;;;5073864;28;20059;-57
2022/01/25 15:57:45;;;;;;;69.10;31.50;;;;;;;;;;5075382;28;20056;-58
2022/01/25 16:00:12;;;;;;;67.28;31.35;;;;;;;;;;5074326;28;20111;-57
2022/01/25 16:02:38;;;;;;;71.57;33.00;;;;;;;;;;5053925;28;20056;-53
2022/01/25 16:05:05;;;;;;;67.32;31.73;;;;;;;;;;5052498;28;20045;-57
2022/01/25 16:07:31;;;;;;;66.70;31.63;;;;;;;;;;5053931;28;20141;-58
2022/01/25 16:09:58;;;;;;;66.45;32.15;;;;;;;;;;5054194;28;20080;-59
2022/01/25 16:12:25;;;;;;;69.63;31.63;;;;;;;;;;5054128;28;20509;-57
2022/01/25 16:14:53;;;;;;;67.35;31.15;;;;;;;;;;5048874;28;20053;-59
2022/01/25 16:17:21;;;;;;;65.65;32.38;;;;;;;;;;5062298;28;20064;-56
2022/01/25 16:19:48;;;;;;;75.78;33.45;;;;;;;;;;5063323;28;20147;-55
2022/01/25 16:22:14;;;;;;;69.63;32.45;;;;;;;;;;5075273;28;20056;-57
2022/01/25 16:24:40;;;;;;;65.80;31.83;;;;;;;;;;5066595;28;20571;-57